Time;durP1;ratioP1;P1;durP2;ratioP2;P2;SDS_P1;SDS_P2;PMS_P1;PMS_P2;Temp;Humidity;BMP_temperature;BMP_pressure;BME280_temperature;BME280_humidity;BME280_pressure;Samples;Min_cycle;Max_cycle;Signal;HPM_P1;HPM_P2
2022/09/22 00:01:05;;;;;;;3.63;3.33;;;12.80;73.90;;;;;;5030630;28;20268;-85
2022/09/22 00:03:32;;;;;;;3.60;3.10;;;12.70;73.70;;;;;;5027129;28;20611;-86
2022/09/22 00:06:07;;;;;;;3.87;3.40;;;12.60;73.40;;;;;;5029760;28;20175;-86
2022/09/22 00:08:35;;;;;;;5.00;3.27;;;12.30;74.50;;;;;;5043559;28;20212;-85
2022/09/22 00:11:15;;;;;;;3.43;3.23;;;12.30;76.20;;;;;;5028979;28;20213;-86
2022/09/22 00:13:43;;;;;;;4.00;3.33;;;12.30;76.00;;;;;;5035380;28;20252;-86
2022/09/22 00:16:10;;;;;;;5.13;3.40;;;12.40;75.80;;;;;;5036005;28;20210;-86
2022/09/22 00:18:35;;;;;;;4.03;3.73;;;12.50;75.60;;;;;;5028474;28;20209;-85
2022/09/22 00:21:11;;;;;;;3.50;3.20;;;12.50;74.70;;;;;;5037812;28;20253;-86
2022/09/22 00:23:38;;;;;;;3.50;3.30;;;12.60;73.90;;;;;;5032821;28;20203;-86
2022/09/22 00:26:09;;;;;;;3.33;3.10;;;12.60;73.90;;;;;;5011697;28;20556;-86
2022/09/22 00:28:37;;;;;;;3.37;3.17;;;12.70;73.50;;;;;;5032332;28;20189;-85
2022/09/22 00:31:07;;;;;;;3.90;3.60;;;12.70;73.20;;;;;;5030629;28;20219;-86
2022/09/22 00:33:34;;;;;;;3.43;3.23;;;12.60;73.30;;;;;;5032379;28;20584;-86
2022/09/22 00:36:01;;;;;;;4.20;3.80;;;12.50;73.50;;;;;;5034127;28;20183;-86
2022/09/22 00:38:27;;;;;;;3.50;3.20;;;12.40;74.20;;;;;;5032529;28;20186;-85
2022/09/22 00:40:53;;;;;;;3.13;2.93;;;12.40;73.50;;;;;;5021834;28;20472;-87
2022/09/22 00:43:22;;;;;;;3.67;3.33;;;12.30;73.90;;;;;;5029209;28;20185;-86
2022/09/22 00:45:53;;;;;;;3.33;3.00;;;12.10;74.70;;;;;;5036981;28;20181;-87
2022/09/22 00:48:22;;;;;;;3.93;3.10;;;11.80;76.10;;;;;;5030018;28;20200;-86
2022/09/22 00:50:52;;;;;;;3.33;3.13;;;11.70;76.80;;;;;;5033771;28;20227;-85
2022/09/22 00:53:22;;;;;;;3.30;3.10;;;11.60;77.60;;;;;;5034107;28;20185;-86
2022/09/22 00:56:09;;;;;;;6.90;3.23;;;11.50;78.20;;;;;;5034942;28;20211;-86
2022/09/22 00:58:44;;;;;;;4.63;3.60;;;11.50;78.20;;;;;;5032652;28;20187;-85
2022/09/22 01:01:10;;;;;;;3.40;3.10;;;11.40;78.30;;;;;;5033786;28;20227;-85
2022/09/22 01:03:39;;;;;;;3.80;3.50;;;11.20;79.60;;;;;;5036392;28;20297;-86
2022/09/22 01:06:08;;;;;;;6.73;3.20;;;11.10;80.50;;;;;;5037096;28;20199;-86
2022/09/22 01:08:36;;;;;;;3.50;3.30;;;11.10;80.70;;;;;;5029621;28;20290;-86
2022/09/22 01:11:02;;;;;;;3.37;3.07;;;11.10;80.80;;;;;;5030795;28;20218;-85
2022/09/22 01:13:52;;;;;;;3.80;3.40;;;11.10;80.10;;;;;;5035330;28;20548;-86
2022/09/22 01:16:33;;;;;;;3.77;3.47;;;11.10;80.10;;;;;;5034733;28;20199;-86
2022/09/22 01:19:24;;;;;;;5.40;3.50;;;11.10;80.70;;;;;;5036402;28;20231;-88
2022/09/22 01:22:15;;;;;;;3.77;3.47;;;11.20;80.50;;;;;;5046762;28;20227;-87
2022/09/22 01:24:40;;;;;;;3.80;3.50;;;11.30;80.30;;;;;;5027609;28;20189;-86
2022/09/22 01:27:26;;;;;;;4.57;3.60;;;11.50;79.80;;;;;;5029380;28;20188;-86
2022/09/22 01:30:17;;;;;;;3.43;3.20;;;11.50;78.00;;;;;;5034121;28;20188;-86
2022/09/22 01:32:48;;;;;;;4.17;3.87;;;11.50;78.40;;;;;;5027320;28;20204;-86
2022/09/22 01:35:17;;;;;;;3.53;3.23;;;11.50;78.50;;;;;;5031747;28;20189;-85
2022/09/22 01:38:05;;;;;;;3.57;3.20;;;11.50;78.50;;;;;;5040228;28;20185;-86
2022/09/22 01:40:34;;;;;;;4.53;3.93;;;11.40;78.50;;;;;;5036899;28;20217;-86
2022/09/22 01:43:10;;;;;;;4.07;3.53;;;11.40;78.20;;;;;;5037157;28;20203;-85
2022/09/22 01:45:40;;;;;;;3.57;3.30;;;11.30;78.60;;;;;;5035220;28;20181;-86
2022/09/22 01:48:22;;;;;;;4.03;3.63;;;11.20;79.80;;;;;;5035023;28;20271;-86
2022/09/22 01:51:04;;;;;;;4.43;4.00;;;11.20;80.30;;;;;;5035616;28;20220;-86
2022/09/22 01:53:36;;;;;;;4.47;3.83;;;11.10;80.20;;;;;;5039028;28;20222;-85
2022/09/22 01:56:06;;;;;;;5.07;4.23;;;10.90;81.00;;;;;;5031854;28;20184;-86
2022/09/22 01:58:38;;;;;;;4.10;3.80;;;10.70;82.00;;;;;;5035866;28;20651;-86
2022/09/22 02:01:19;;;;;;;4.70;4.30;;;10.70;82.60;;;;;;5033089;28;20224;-86
2022/09/22 02:04:02;;;;;;;4.47;4.00;;;10.60;83.00;;;;;;5032940;28;20246;-87
2022/09/22 02:06:34;;;;;;;4.40;4.00;;;10.50;83.20;;;;;;5028807;28;20180;-86
2022/09/22 02:09:06;;;;;;;5.53;4.30;;;10.50;83.60;;;;;;5034800;28;20194;-86
2022/09/22 02:11:32;;;;;;;4.53;4.00;;;10.50;83.70;;;;;;5039932;28;20215;-86
2022/09/22 02:13:58;;;;;;;4.50;4.10;;;10.50;83.60;;;;;;5035539;28;20189;-86
2022/09/22 02:16:26;;;;;;;7.97;4.10;;;10.60;82.90;;;;;;5040281;28;20724;-85
2022/09/22 02:19:10;;;;;;;4.80;3.90;;;10.60;82.70;;;;;;5025223;28;20269;-86
2022/09/22 02:21:38;;;;;;;5.53;4.00;;;10.60;83.00;;;;;;5032291;28;20627;-86
2022/09/22 02:24:05;;;;;;;7.70;4.00;;;10.60;82.50;;;;;;5032163;28;20191;-86
2022/09/22 02:26:34;;;;;;;4.07;3.67;;;10.70;82.80;;;;;;5036434;28;20593;-85
2022/09/22 02:29:05;;;;;;;3.70;3.40;;;10.90;82.30;;;;;;5035997;28;20540;-86
2022/09/22 02:31:34;;;;;;;5.00;3.93;;;11.00;81.40;;;;;;5033969;28;20220;-87
2022/09/22 02:34:01;;;;;;;4.40;4.00;;;11.10;80.80;;;;;;5037192;28;20192;-87
2022/09/22 02:37:02;;;;;;;4.73;3.97;;;11.10;79.90;;;;;;5039603;28;20196;-85
2022/09/22 02:39:45;;;;;;;4.73;3.80;;;10.90;79.30;;;;;;4987690;28;20197;-86
2022/09/22 02:42:28;;;;;;;4.20;3.90;;;10.60;81.20;;;;;;5023932;28;20236;-86
2022/09/22 02:45:07;;;;;;;4.30;4.00;;;10.50;83.00;;;;;;5035864;28;20183;-86
2022/09/22 02:47:46;;;;;;;4.90;4.50;;;10.60;82.80;;;;;;5031859;28;20190;-87
2022/09/22 02:50:15;;;;;;;4.40;4.00;;;10.70;82.00;;;;;;5032527;28;20557;-86
2022/09/22 02:52:41;;;;;;;4.23;3.87;;;10.70;82.00;;;;;;5032917;28;20200;-86
2022/09/22 02:55:08;;;;;;;4.53;4.13;;;10.70;82.00;;;;;;5031507;28;20182;-86
2022/09/22 02:57:34;;;;;;;4.10;3.80;;;10.90;81.70;;;;;;5033321;28;20181;-86
2022/09/22 03:00:01;;;;;;;5.07;4.57;;;10.90;80.90;;;;;;5041580;28;20258;-86
2022/09/22 03:02:26;;;;;;;4.03;3.70;;;11.00;80.10;;;;;;5031827;28;20403;-86
2022/09/22 03:04:52;;;;;;;4.43;3.90;;;10.90;80.80;;;;;;5026365;28;20185;-87
2022/09/22 03:07:18;;;;;;;4.30;4.00;;;10.90;81.20;;;;;;5039959;28;20201;-86
2022/09/22 03:09:43;;;;;;;4.60;4.17;;;11.00;79.70;;;;;;5046534;28;20223;-86
2022/09/22 03:12:09;;;;;;;4.70;3.90;;;11.00;79.50;;;;;;5034788;28;20216;-86
2022/09/22 03:14:35;;;;;;;6.20;4.27;;;11.00;80.10;;;;;;5033532;28;20179;-87
2022/09/22 03:17:00;;;;;;;4.23;3.83;;;11.00;79.80;;;;;;5031434;28;20188;-85
2022/09/22 03:19:26;;;;;;;4.27;3.97;;;11.00;79.60;;;;;;5032168;28;20197;-86
2022/09/22 03:21:52;;;;;;;4.40;4.00;;;10.80;79.70;;;;;;5029561;28;20220;-85
2022/09/22 03:24:18;;;;;;;4.43;4.03;;;10.90;80.60;;;;;;5031345;28;20192;-87
2022/09/22 03:26:43;;;;;;;4.23;3.93;;;10.90;79.90;;;;;;5033838;28;20260;-87
2022/09/22 03:29:09;;;;;;;4.37;4.07;;;10.90;79.60;;;;;;5038674;28;20706;-86
2022/09/22 03:31:35;;;;;;;4.03;3.73;;;10.80;79.50;;;;;;5029216;28;20231;-86
2022/09/22 03:34:00;;;;;;;3.97;3.60;;;10.60;80.00;;;;;;5027305;28;20196;-86
2022/09/22 03:36:26;;;;;;;4.37;3.97;;;10.30;81.80;;;;;;5025748;28;20191;-85
2022/09/22 03:38:52;;;;;;;6.73;4.20;;;10.20;83.20;;;;;;5033168;28;20270;-86
2022/09/22 03:41:18;;;;;;;4.50;4.10;;;10.10;83.60;;;;;;5029912;28;20295;-85
2022/09/22 03:43:44;;;;;;;4.20;3.80;;;10.10;83.20;;;;;;5031481;28;20214;-86
2022/09/22 03:46:09;;;;;;;4.47;4.07;;;10.00;83.80;;;;;;5032849;28;20194;-86
2022/09/22 03:48:35;;;;;;;4.07;3.73;;;10.00;83.90;;;;;;5029291;28;20188;-85
2022/09/22 03:51:01;;;;;;;5.67;4.40;;;9.90;84.70;;;;;;5028048;28;20217;-85
2022/09/22 03:53:27;;;;;;;4.97;4.03;;;9.80;84.90;;;;;;5028658;28;20189;-85
2022/09/22 03:56:07;;;;;;;5.93;3.83;;;9.80;85.70;;;;;;5032080;28;20217;-85
2022/09/22 03:58:33;;;;;;;4.17;3.70;;;9.70;85.50;;;;;;5028543;28;20193;-85
2022/09/22 04:00:58;;;;;;;7.80;4.10;;;9.60;86.20;;;;;;5032831;28;20226;-86
2022/09/22 04:03:24;;;;;;;4.90;4.33;;;9.70;85.90;;;;;;5028901;28;20186;-85
2022/09/22 04:05:50;;;;;;;4.10;3.80;;;9.50;86.90;;;;;;5006238;28;20196;-85
2022/09/22 04:08:17;;;;;;;4.60;4.20;;;9.30;88.20;;;;;;5037432;28;20290;-86
2022/09/22 04:10:45;;;;;;;6.97;6.47;;;9.40;88.20;;;;;;5048977;28;20201;-88
2022/09/22 04:13:12;;;;;;;7.53;6.93;;;9.40;87.90;;;;;;5044889;28;20200;-86
2022/09/22 04:15:38;;;;;;;17.97;16.27;;;9.40;87.50;;;;;;5039235;28;20193;-86
2022/09/22 04:18:04;;;;;;;32.97;26.80;;;9.30;88.40;;;;;;5032671;28;20732;-85
2022/09/22 04:20:30;;;;;;;83.80;59.80;;;9.30;88.70;;;;;;5032989;28;20285;-86
2022/09/22 04:22:55;;;;;;;59.53;46.77;;;9.30;88.20;;;;;;5032108;28;20178;-87
2022/09/22 04:25:21;;;;;;;37.87;33.37;;;9.10;89.00;;;;;;5048851;28;20208;-87
2022/09/22 04:27:47;;;;;;;13.97;12.67;;;9.10;90.40;;;;;;5052975;28;20281;-86
2022/09/22 04:30:13;;;;;;;6.43;5.83;;;9.00;90.10;;;;;;5047531;28;20192;-86
2022/09/22 04:32:39;;;;;;;5.17;4.60;;;8.90;91.10;;;;;;5031602;28;20197;-86
2022/09/22 04:35:05;;;;;;;5.17;4.67;;;8.80;91.10;;;;;;5033893;28;20227;-86
2022/09/22 04:37:52;;;;;;;5.30;4.90;;;8.80;92.00;;;;;;5025070;28;20205;-86
2022/09/22 04:40:17;;;;;;;4.90;4.50;;;8.80;91.30;;;;;;5029105;28;20202;-86
2022/09/22 04:42:44;;;;;;;5.17;4.77;;;8.80;91.30;;;;;;5028978;28;20212;-86
2022/09/22 04:45:10;;;;;;;4.77;4.37;;;8.80;92.00;;;;;;5029683;28;20182;-86
2022/09/22 04:47:35;;;;;;;5.00;4.60;;;8.80;92.20;;;;;;5037769;28;20518;-87
2022/09/22 04:50:01;;;;;;;5.10;4.60;;;8.70;92.60;;;;;;5036642;28;20679;-86
2022/09/22 04:52:27;;;;;;;5.40;4.90;;;8.80;92.00;;;;;;5030588;28;20214;-85
2022/09/22 04:54:52;;;;;;;5.23;4.70;;;8.80;91.80;;;;;;5029415;28;20200;-86
2022/09/22 04:57:18;;;;;;;4.77;4.37;;;8.80;91.80;;;;;;5038038;28;20255;-86
2022/09/22 04:59:44;;;;;;;4.97;4.50;;;8.70;92.00;;;;;;5033697;28;20211;-86
2022/09/22 05:02:09;;;;;;;5.47;4.60;;;8.80;92.40;;;;;;5037603;28;20212;-86
2022/09/22 05:04:35;;;;;;;10.60;5.20;;;8.80;92.00;;;;;;5028818;28;20563;-87
2022/09/22 05:07:00;;;;;;;5.13;4.67;;;8.80;91.50;;;;;;5032836;28;20194;-87
2022/09/22 05:09:27;;;;;;;7.57;5.30;;;8.70;92.20;;;;;;5039637;28;20193;-87
2022/09/22 05:11:53;;;;;;;7.87;4.70;;;8.60;93.10;;;;;;5038123;28;20208;-87
2022/09/22 05:14:19;;;;;;;5.23;4.77;;;8.60;93.50;;;;;;5037552;28;20201;-87
2022/09/22 05:16:44;;;;;;;4.97;4.57;;;8.60;93.70;;;;;;5038997;28;20185;-86
2022/09/22 05:19:10;;;;;;;5.07;4.67;;;8.60;93.80;;;;;;5034142;28;20201;-86
2022/09/22 05:21:36;;;;;;;5.10;4.70;;;8.60;93.90;;;;;;5036117;28;20228;-86
2022/09/22 05:24:02;;;;;;;5.63;4.90;;;8.60;93.90;;;;;;5037230;28;20196;-86
2022/09/22 05:26:29;;;;;;;4.93;4.50;;;8.50;93.70;;;;;;5042447;28;20181;-86
2022/09/22 05:28:56;;;;;;;5.53;4.80;;;8.50;94.50;;;;;;5029733;28;20190;-86
2022/09/22 05:31:22;;;;;;;5.30;4.50;;;8.30;95.70;;;;;;5043792;28;20328;-86
2022/09/22 05:33:48;;;;;;;4.83;4.37;;;8.30;95.90;;;;;;5037385;28;20177;-86
2022/09/22 05:36:14;;;;;;;4.93;4.47;;;8.30;96.50;;;;;;5039517;28;20196;-86
2022/09/22 05:38:39;;;;;;;5.23;4.73;;;8.20;96.10;;;;;;5029909;28;20205;-86
2022/09/22 05:41:05;;;;;;;5.07;4.43;;;8.20;96.70;;;;;;5035959;28;20228;-87
2022/09/22 05:43:31;;;;;;;4.93;4.47;;;8.10;96.50;;;;;;5037872;28;20199;-87
2022/09/22 05:45:57;;;;;;;5.43;4.43;;;8.10;97.30;;;;;;5039217;28;20189;-86
2022/09/22 05:48:22;;;;;;;6.60;4.70;;;8.10;97.60;;;;;;5041662;28;20189;-86
2022/09/22 05:50:48;;;;;;;5.80;4.27;;;8.30;97.10;;;;;;5036581;28;20237;-86
2022/09/22 05:53:15;;;;;;;5.17;4.33;;;8.30;96.00;;;;;;5032458;28;20285;-86
2022/09/22 05:55:41;;;;;;;6.13;4.73;;;8.50;95.60;;;;;;5037081;28;20185;-86
2022/09/22 05:58:10;;;;;;;4.87;4.47;;;8.60;95.20;;;;;;5041799;28;20189;-86
2022/09/22 06:00:36;;;;;;;4.93;4.53;;;8.70;95.10;;;;;;5036154;28;20729;-86
2022/09/22 06:03:02;;;;;;;4.90;4.50;;;8.80;94.00;;;;;;5037828;28;20192;-86
2022/09/22 06:05:28;;;;;;;6.80;4.70;;;9.00;93.00;;;;;;5037036;28;20181;-86
2022/09/22 06:08:02;;;;;;;4.73;4.33;;;8.90;93.20;;;;;;5039389;28;20251;-86
2022/09/22 06:10:29;;;;;;;4.90;4.50;;;9.00;93.20;;;;;;5036477;28;20213;-86
2022/09/22 06:13:03;;;;;;;4.37;3.97;;;8.90;92.80;;;;;;5039800;28;20189;-86
2022/09/22 06:15:31;;;;;;;5.17;4.67;;;8.90;93.30;;;;;;5038799;28;20177;-86
2022/09/22 06:17:57;;;;;;;5.47;4.43;;;8.80;93.80;;;;;;5040535;28;20552;-86
2022/09/22 06:20:23;;;;;;;6.33;5.10;;;8.70;94.50;;;;;;5040917;28;20212;-86
2022/09/22 06:22:49;;;;;;;5.87;4.63;;;8.70;94.70;;;;;;5037252;28;20726;-85
2022/09/22 06:25:15;;;;;;;5.80;5.20;;;8.70;95.70;;;;;;5034728;28;20260;-86
2022/09/22 06:27:42;;;;;;;5.23;4.83;;;8.70;95.00;;;;;;5036604;28;20212;-85
2022/09/22 06:30:10;;;;;;;5.80;4.90;;;8.80;94.80;;;;;;5039759;28;20185;-86
2022/09/22 06:32:42;;;;;;;5.33;4.87;;;8.80;95.20;;;;;;5032383;28;20209;-86
2022/09/22 06:35:08;;;;;;;5.00;4.50;;;9.00;94.50;;;;;;5034987;28;20216;-86
2022/09/22 06:37:37;;;;;;;5.07;4.47;;;9.10;93.60;;;;;;5040076;28;20193;-86
2022/09/22 06:40:04;;;;;;;6.87;4.73;;;9.20;92.90;;;;;;5034322;28;20561;-86
2022/09/22 06:42:30;;;;;;;5.17;4.77;;;9.20;92.60;;;;;;5036934;28;20241;-86
2022/09/22 06:44:56;;;;;;;6.20;4.90;;;9.30;93.20;;;;;;5032829;28;20582;-86
2022/09/22 06:47:22;;;;;;;6.53;5.53;;;9.30;92.90;;;;;;5040577;28;20177;-86
2022/09/22 06:49:48;;;;;;;7.33;5.73;;;9.40;92.60;;;;;;5040279;28;20197;-86
2022/09/22 06:52:14;;;;;;;6.27;4.90;;;9.40;92.40;;;;;;5041215;28;20216;-86
2022/09/22 06:54:40;;;;;;;5.90;5.40;;;9.50;92.10;;;;;;5035488;28;20222;-86
2022/09/22 06:57:10;;;;;;;5.37;4.87;;;9.50;92.40;;;;;;5034882;28;20263;-86
2022/09/22 06:59:36;;;;;;;5.60;5.20;;;9.60;92.50;;;;;;5044978;28;20216;-86
2022/09/22 07:02:03;;;;;;;5.10;4.70;;;9.50;92.60;;;;;;5046056;28;20279;-85
2022/09/22 07:04:28;;;;;;;5.60;4.63;;;9.50;92.90;;;;;;5032009;28;20198;-86
2022/09/22 07:06:54;;;;;;;7.33;5.00;;;9.60;91.70;;;;;;5032122;28;20197;-86
2022/09/22 07:09:20;;;;;;;5.47;4.97;;;9.80;91.00;;;;;;5026822;28;20657;-86
2022/09/22 07:11:47;;;;;;;5.27;4.83;;;9.80;91.60;;;;;;5031162;28;20292;-86
2022/09/22 07:14:13;;;;;;;5.33;4.83;;;9.90;90.50;;;;;;5030749;28;20193;-86
2022/09/22 07:16:39;;;;;;;5.83;5.33;;;10.00;90.10;;;;;;5034840;28;20286;-86
2022/09/22 07:19:05;;;;;;;7.07;5.20;;;10.10;89.30;;;;;;5027499;28;20637;-86
2022/09/22 07:21:35;;;;;;;5.57;5.07;;;10.20;89.30;;;;;;5027574;28;20276;-86
2022/09/22 07:24:01;;;;;;;5.27;4.77;;;10.40;89.40;;;;;;5028798;28;20192;-86
2022/09/22 07:26:31;;;;;;;6.57;4.83;;;10.50;88.10;;;;;;5025767;28;20278;-86
2022/09/22 07:28:59;;;;;;;5.57;5.00;;;10.60;87.00;;;;;;5028310;28;20189;-86
2022/09/22 07:31:26;;;;;;;5.33;4.90;;;10.70;87.00;;;;;;5027420;28;20224;-86
2022/09/22 07:33:53;;;;;;;5.10;4.60;;;10.80;86.50;;;;;;5030743;28;20277;-87
2022/09/22 07:36:21;;;;;;;4.93;4.53;;;10.90;85.80;;;;;;5026339;28;20251;-86
2022/09/22 07:38:50;;;;;;;5.67;4.63;;;11.00;84.90;;;;;;5030154;28;20268;-86
2022/09/22 07:41:18;;;;;;;5.77;4.47;;;11.10;83.80;;;;;;5028832;28;20310;-86
2022/09/22 07:43:44;;;;;;;5.43;4.93;;;11.20;83.30;;;;;;5026741;28;20649;-86
2022/09/22 07:46:12;;;;;;;4.87;4.33;;;11.30;83.30;;;;;;5035406;28;20256;-86
2022/09/22 07:48:46;;;;;;;6.57;4.30;;;11.40;82.40;;;;;;5026038;28;20441;-86
2022/09/22 07:51:23;;;;;;;4.83;4.10;;;11.50;80.90;;;;;;5034378;28;20231;-86
2022/09/22 07:54:06;;;;;;;7.17;4.30;;;11.70;80.20;;;;;;5032080;28;20196;-86
2022/09/22 07:56:38;;;;;;;4.30;3.87;;;11.70;79.10;;;;;;5026834;28;20186;-85
2022/09/22 07:59:09;;;;;;;5.17;4.50;;;11.90;78.10;;;;;;5029124;28;20286;-86
2022/09/22 08:01:36;;;;;;;4.57;4.17;;;12.00;77.60;;;;;;5027490;28;20245;-86
2022/09/22 08:04:03;;;;;;;4.10;3.80;;;12.00;78.00;;;;;;5028194;28;20199;-86
2022/09/22 08:06:30;;;;;;;6.27;5.77;;;12.20;78.40;;;;;;5030367;28;20208;-86
2022/09/22 08:08:56;;;;;;;4.30;4.00;;;12.20;78.30;;;;;;5030894;28;20196;-86
2022/09/22 08:11:27;;;;;;;4.43;4.00;;;12.30;78.40;;;;;;5027782;28;20235;-86
2022/09/22 08:13:59;;;;;;;4.90;4.40;;;12.40;77.00;;;;;;5030050;28;20226;-86
2022/09/22 08:16:29;;;;;;;6.77;4.13;;;12.50;76.20;;;;;;5031466;28;20185;-86
2022/09/22 08:18:59;;;;;;;4.50;4.10;;;12.60;76.40;;;;;;5026747;28;20260;-86
2022/09/22 08:21:26;;;;;;;5.73;4.30;;;12.70;74.10;;;;;;5029036;28;20220;-86
2022/09/22 08:23:53;;;;;;;4.20;3.80;;;12.90;72.90;;;;;;5028634;28;20204;-86
2022/09/22 08:26:20;;;;;;;4.67;3.67;;;12.90;72.30;;;;;;5028974;28;20177;-86
2022/09/22 08:28:49;;;;;;;4.73;3.80;;;13.10;72.00;;;;;;5027961;28;20185;-86
2022/09/22 08:31:18;;;;;;;4.47;4.07;;;13.10;72.80;;;;;;5034285;28;20273;-86
2022/09/22 08:33:44;;;;;;;4.00;3.70;;;13.30;72.20;;;;;;5028597;28;20216;-86
2022/09/22 08:36:10;;;;;;;5.00;4.03;;;13.40;72.10;;;;;;5026153;28;20191;-86
2022/09/22 08:38:37;;;;;;;3.73;3.43;;;13.50;71.30;;;;;;5026085;28;20197;-85
2022/09/22 08:41:14;;;;;;;4.43;3.77;;;13.50;71.30;;;;;;5034486;28;20234;-86
2022/09/22 08:43:54;;;;;;;4.27;3.97;;;13.70;70.70;;;;;;5025808;28;20231;-86
2022/09/22 08:46:22;;;;;;;4.13;3.83;;;13.80;70.50;;;;;;5032897;28;20191;-86
2022/09/22 08:51:51;;;;;;;4.27;3.87;;;14.00;69.00;;;;;;5027775;28;20284;-86
2022/09/22 08:54:23;;;;;;;3.70;3.40;;;14.20;68.00;;;;;;5029967;28;20179;-85
2022/09/22 08:57:13;;;;;;;6.40;3.60;;;14.40;66.90;;;;;;5024831;28;20607;-86
2022/09/22 08:59:50;;;;;;;3.70;3.30;;;14.50;67.50;;;;;;5032216;28;20777;-85
2022/09/22 09:02:22;;;;;;;4.40;3.40;;;14.70;66.70;;;;;;5030736;28;20208;-85
2022/09/22 09:05:02;;;;;;;3.53;3.23;;;14.80;65.00;;;;;;5027309;28;20647;-85
2022/09/22 09:07:56;;;;;;;3.73;3.43;;;14.90;65.10;;;;;;5031745;28;20214;-86
2022/09/22 09:10:34;;;;;;;3.57;3.27;;;15.00;65.40;;;;;;5022072;28;20206;-87
2022/09/22 09:13:18;;;;;;;3.43;3.13;;;15.30;63.40;;;;;;5023847;28;20199;-86
2022/09/22 09:16:13;;;;;;;3.70;3.40;;;15.40;62.00;;;;;;5027731;28;20210;-87
2022/09/22 09:18:44;;;;;;;3.70;3.30;;;15.50;62.20;;;;;;5026085;28;20222;-88
2022/09/22 09:21:14;;;;;;;3.07;2.87;;;15.60;60.80;;;;;;5021414;28;20231;-88
2022/09/22 09:23:48;;;;;;;4.07;3.40;;;15.80;60.40;;;;;;5025419;28;20524;-88
2022/09/22 09:26:15;;;;;;;3.20;3.00;;;15.80;59.80;;;;;;5021986;28;20275;-90
2022/09/22 09:28:47;;;;;;;3.17;2.97;;;15.90;59.40;;;;;;5041722;28;20192;-90
2022/09/22 09:31:27;;;;;;;3.70;3.40;;;16.10;59.80;;;;;;5030364;28;20613;-90
2022/09/22 09:34:08;;;;;;;3.23;3.03;;;16.20;58.00;;;;;;5026815;28;20179;-89
2022/09/22 09:36:40;;;;;;;3.63;3.20;;;16.40;58.50;;;;;;5027558;28;20213;-86
2022/09/22 09:39:31;;;;;;;3.43;3.13;;;16.40;57.70;;;;;;5023685;28;20729;-87
2022/09/22 09:41:59;;;;;;;3.40;3.10;;;16.60;58.20;;;;;;5023185;28;20304;-88
2022/09/22 09:44:25;;;;;;;5.67;3.33;;;16.80;56.30;;;;;;5029445;28;20191;-88
2022/09/22 09:47:11;;;;;;;3.63;3.10;;;16.80;55.40;;;;;;5031666;28;20198;-88
2022/09/22 09:49:37;;;;;;;4.00;3.20;;;17.00;56.10;;;;;;5049574;28;20315;-88
2022/09/22 09:52:07;;;;;;;2.90;2.60;;;17.00;55.20;;;;;;5039742;28;20220;-86
2022/09/22 09:54:34;;;;;;;3.50;3.20;;;17.20;55.30;;;;;;5020065;28;20196;-88
2022/09/22 09:57:19;;;;;;;3.73;3.20;;;17.10;55.30;;;;;;5023339;28;20239;-87
2022/09/22 10:00:30;;;;;;;20.07;5.07;;;17.40;53.60;;;;;;5024520;28;20195;-87
2022/09/22 10:03:23;;;;;;;3.10;2.80;;;17.60;52.90;;;;;;5024854;28;20191;-88
2022/09/22 10:06:08;;;;;;;2.90;2.70;;;17.70;51.70;;;;;;5028988;28;20220;-88
2022/09/22 10:08:43;;;;;;;3.23;2.90;;;17.70;50.70;;;;;;5030387;28;20617;-88
2022/09/22 10:11:11;;;;;;;2.87;2.67;;;17.70;51.80;;;;;;5028731;28;20668;-88
2022/09/22 10:13:39;;;;;;;3.10;2.90;;;17.80;51.40;;;;;;5022497;28;20190;-88
2022/09/22 10:16:23;;;;;;;3.10;2.90;;;17.90;51.20;;;;;;5035959;28;20187;-88
2022/09/22 10:19:18;;;;;;;2.67;2.50;;;18.00;51.80;;;;;;5029547;28;20191;-88
2022/09/22 10:21:44;;;;;;;3.67;2.70;;;18.20;48.30;;;;;;5038244;28;20241;-88
2022/09/22 10:24:29;;;;;;;3.10;2.85;;;18.40;50.00;;;;;;5034096;28;20192;-88
2022/09/22 10:26:54;;;;;;;3.03;2.78;;;18.60;47.50;;;;;;5033876;28;20670;-88
2022/09/22 10:29:21;;;;;;;3.25;2.85;;;18.80;48.10;;;;;;5029949;28;20236;-88
2022/09/22 10:32:01;;;;;;;2.58;2.47;;;18.80;46.50;;;;;;5027937;28;20215;-88
2022/09/22 10:34:39;;;;;;;3.53;2.70;;;19.00;45.90;;;;;;5027051;28;20699;-88
2022/09/22 10:37:09;;;;;;;2.92;2.72;;;18.90;45.70;;;;;;5027264;28;20658;-88
2022/09/22 10:39:46;;;;;;;2.80;2.60;;;19.00;45.80;;;;;;5034979;28;20724;-88
2022/09/22 10:42:39;;;;;;;2.78;2.58;;;19.10;44.70;;;;;;5028038;28;20279;-88
2022/09/22 10:45:14;;;;;;;3.50;2.53;;;19.30;46.10;;;;;;5030349;28;20181;-88
2022/09/22 10:48:11;;;;;;;3.58;2.47;;;19.80;43.20;;;;;;5028891;28;20278;-88
2022/09/22 10:50:46;;;;;;;3.25;2.95;;;19.90;42.70;;;;;;5024958;28;20201;-88
2022/09/22 10:53:47;;;;;;;2.60;2.40;;;19.90;43.10;;;;;;5025198;28;20188;-88
2022/09/22 10:56:32;;;;;;;2.78;2.58;;;19.90;41.90;;;;;;5024775;28;20219;-88
2022/09/22 10:59:17;;;;;;;3.00;2.70;;;20.20;42.30;;;;;;5033291;28;20200;-88
2022/09/22 11:02:27;;;;;;;4.38;2.70;;;20.30;41.50;;;;;;5030571;28;20223;-88
2022/09/22 11:13:50;;;;;;;2.95;2.65;;;20.30;39.50;;;;;;5031195;28;20176;-88
2022/09/22 11:16:35;;;;;;;2.80;2.38;;;20.50;41.50;;;;;;5032981;28;20556;-88
2022/09/22 11:19:18;;;;;;;2.63;2.40;;;21.00;38.70;;;;;;5031380;28;20192;-88
2022/09/22 11:22:06;;;;;;;2.90;2.70;;;21.40;38.60;;;;;;5032375;28;20208;-88
2022/09/22 11:24:57;;;;;;;2.85;2.65;;;21.60;39.70;;;;;;5028746;28;20193;-88
2022/09/22 11:27:50;;;;;;;2.92;2.72;;;21.40;37.60;;;;;;5031761;28;20244;-88
2022/09/22 11:30:21;;;;;;;2.78;2.58;;;21.50;37.50;;;;;;5027070;28;20243;-88
2022/09/22 11:32:47;;;;;;;3.03;2.72;;;21.70;37.40;;;;;;5026490;28;20190;-88
2022/09/22 11:35:21;;;;;;;3.63;2.92;;;21.60;38.40;;;;;;5029561;28;20414;-88
2022/09/22 11:38:08;;;;;;;3.28;2.80;;;21.80;37.40;;;;;;5034902;28;20405;-88
2022/09/22 11:40:53;;;;;;;2.80;2.60;;;21.70;36.70;;;;;;5032252;28;20212;-87
2022/09/22 11:43:40;;;;;;;2.97;2.78;;;22.00;35.60;;;;;;5034655;28;20184;-88
2022/09/22 11:46:30;;;;;;;3.08;2.88;;;22.10;36.00;;;;;;5029413;28;20299;-86
2022/09/22 11:48:58;;;;;;;3.63;2.90;;;22.30;36.90;;;;;;5029405;28;20170;-86
2022/09/22 11:52:08;;;;;;;3.22;3.03;;;22.60;35.60;;;;;;5032394;28;20208;-86
2022/09/22 11:54:49;;;;;;;3.25;2.95;;;22.20;36.40;;;;;;5025739;28;20201;-86
2022/09/22 11:57:20;;;;;;;3.58;3.28;;;22.60;36.40;;;;;;5034091;28;20239;-89
2022/09/22 12:00:04;;;;;;;3.50;3.20;;;22.60;36.40;;;;;;5036599;28;20222;-89
2022/09/22 12:02:57;;;;;;;3.22;3.00;;;22.80;36.20;;;;;;5029226;28;20177;-88
2022/09/22 12:05:31;;;;;;;3.20;3.00;;;22.70;35.00;;;;;;5028803;28;20174;-85
2022/09/22 12:08:02;;;;;;;3.20;3.00;;;22.90;34.60;;;;;;5032299;28;20234;-86
2022/09/22 12:10:33;;;;;;;3.28;2.90;;;23.10;34.40;;;;;;5033452;28;20696;-85
2022/09/22 12:13:00;;;;;;;2.95;2.67;;;22.80;34.90;;;;;;5028471;28;20285;-86
2022/09/22 12:15:37;;;;;;;3.58;3.17;;;22.90;34.00;;;;;;5037098;28;20212;-85
2022/09/22 12:18:13;;;;;;;3.30;3.00;;;22.80;33.90;;;;;;5035682;28;20196;-87
2022/09/22 12:20:44;;;;;;;5.55;3.28;;;22.80;33.90;;;;;;5035992;28;20216;-86
2022/09/22 12:23:39;;;;;;;3.30;3.00;;;22.90;33.70;;;;;;5036145;28;20185;-87
2022/09/22 12:26:24;;;;;;;4.30;2.80;;;23.40;33.40;;;;;;5041553;28;20185;-87
2022/09/22 12:28:50;;;;;;;3.40;3.10;;;23.90;33.10;;;;;;5044221;28;20189;-87
2022/09/22 12:31:19;;;;;;;3.17;2.75;;;23.60;32.70;;;;;;5043638;28;20212;-87
2022/09/22 12:33:51;;;;;;;2.90;2.70;;;23.60;32.80;;;;;;5056496;28;20236;-87
2022/09/22 12:36:38;;;;;;;3.20;2.90;;;23.60;32.70;;;;;;5052308;28;20193;-87
2022/09/22 12:39:19;;;;;;;3.22;2.92;;;23.60;32.50;;;;;;5039489;28;20203;-87
2022/09/22 12:41:59;;;;;;;3.17;2.90;;;23.60;31.70;;;;;;5037947;28;20645;-87
2022/09/22 12:44:53;;;;;;;3.20;2.90;;;23.60;32.60;;;;;;5036118;28;20223;-87
2022/09/22 12:47:32;;;;;;;3.42;2.90;;;23.40;32.20;;;;;;5033239;28;20198;-87
2022/09/22 12:50:00;;;;;;;5.30;3.13;;;23.60;32.90;;;;;;5033414;28;20181;-87
2022/09/22 12:52:58;;;;;;;3.15;2.95;;;23.70;31.70;;;;;;5035308;28;20209;-88
2022/09/22 12:55:27;;;;;;;3.83;3.22;;;23.60;32.10;;;;;;5032924;28;20177;-87
2022/09/22 12:57:57;;;;;;;4.57;3.00;;;23.60;32.10;;;;;;5036202;28;20180;-88
2022/09/22 13:00:30;;;;;;;3.75;3.10;;;23.60;32.00;;;;;;5042264;28;20394;-87
2022/09/22 13:02:56;;;;;;;2.90;2.70;;;23.90;31.70;;;;;;5039635;28;20193;-88
2022/09/22 13:05:25;;;;;;;2.92;2.72;;;24.10;30.30;;;;;;5023714;28;20266;-88
2022/09/22 13:07:55;;;;;;;3.05;2.78;;;23.70;30.90;;;;;;5034017;28;20197;-87
2022/09/22 13:10:21;;;;;;;3.00;2.80;;;24.10;30.50;;;;;;5031495;28;20200;-88
2022/09/22 13:13:02;;;;;;;3.00;2.80;;;24.30;30.10;;;;;;5037173;28;20208;-88
2022/09/22 13:15:32;;;;;;;3.72;2.92;;;24.60;30.10;;;;;;5032153;28;20196;-88
2022/09/22 13:17:58;;;;;;;3.58;2.80;;;24.90;29.80;;;;;;5035499;28;20188;-87
2022/09/22 13:20:28;;;;;;;2.80;2.60;;;25.20;29.10;;;;;;5035821;28;20437;-88
2022/09/22 13:23:09;;;;;;;3.13;2.83;;;25.30;29.00;;;;;;5036600;28;20169;-87
2022/09/22 13:25:35;;;;;;;3.00;2.80;;;25.10;29.10;;;;;;5035524;28;20177;-87